createdAt,value
2018-02-14T00:00:27.718Z,-1.30
2018-02-14T00:01:32.496Z,-1.30
2018-02-14T00:02:38.423Z,-1.30
2018-02-14T00:03:43.566Z,-1.30
2018-02-14T00:04:47.823Z,-1.30
2018-02-14T00:05:52.046Z,-1.30
2018-02-14T00:06:56.291Z,-1.30
2018-02-14T00:08:00.596Z,-1.30
2018-02-14T00:09:05.741Z,-1.30
2018-02-14T00:10:10.119Z,-1.30
2018-02-14T00:11:14.927Z,-1.40
2018-02-14T00:12:19.112Z,-1.30
2018-02-14T00:13:23.325Z,-1.40
2018-02-14T00:14:27.581Z,-1.40
2018-02-14T00:15:32.337Z,-1.30
2018-02-14T00:16:36.910Z,-1.40
2018-02-14T00:17:41.268Z,-1.40
2018-02-14T00:18:45.534Z,-1.40
2018-02-14T00:19:49.800Z,-1.40
2018-02-14T00:20:54.008Z,-1.40
2018-02-14T00:21:58.223Z,-1.40
2018-02-14T00:23:02.834Z,-1.40
2018-02-14T00:24:08.015Z,-1.40
2018-02-14T00:25:12.313Z,-1.40
2018-02-14T00:26:16.512Z,-1.40
2018-02-14T00:27:20.776Z,-1.50
2018-02-14T00:28:25.765Z,-1.50
2018-02-14T00:29:29.975Z,-1.50
2018-02-14T00:30:35.476Z,-1.50
2018-02-14T00:31:39.820Z,-1.40
2018-02-14T00:32:44.131Z,-1.50
2018-02-14T00:33:48.350Z,-1.50
2018-02-14T00:34:52.582Z,-1.50
2018-02-14T00:35:56.815Z,-1.50
2018-02-14T00:37:02.494Z,-1.50
2018-02-14T00:38:07.103Z,-1.50
2018-02-14T00:39:11.347Z,-1.50
2018-02-14T00:40:16.383Z,-1.60
2018-02-14T00:41:20.596Z,-1.60
2018-02-14T00:42:24.791Z,-1.60
2018-02-14T00:43:29.015Z,-1.60
2018-02-14T00:44:33.704Z,-1.60
2018-02-14T00:45:38.059Z,-1.60
2018-02-14T00:46:42.905Z,-1.60
2018-02-14T00:47:47.213Z,-1.60
2018-02-14T00:48:51.450Z,-1.50
2018-02-14T00:49:56.407Z,-1.60
2018-02-14T00:51:00.619Z,-1.60
2018-02-14T00:52:05.700Z,-1.60
2018-02-14T00:53:11.050Z,-1.50
2018-02-14T00:54:15.432Z,-1.60
2018-02-14T00:55:21.151Z,-1.50
2018-02-14T00:56:25.330Z,-1.60
2018-02-14T00:57:30.270Z,-1.60
2018-02-14T00:58:35.208Z,-1.60
2018-02-14T00:59:39.742Z,-1.60
2018-02-14T01:00:44.036Z,-1.60
2018-02-14T01:01:48.304Z,-1.60
2018-02-14T01:02:52.502Z,-1.60
2018-02-14T01:03:56.772Z,-1.60
2018-02-14T01:05:01.070Z,-1.60
2018-02-14T01:06:06.714Z,-1.60
2018-02-14T01:07:11.450Z,-1.60
2018-02-14T01:08:15.690Z,-1.60
2018-02-14T01:09:20.292Z,-1.60
2018-02-14T01:10:24.522Z,-1.60
2018-02-14T01:11:28.724Z,-1.60
2018-02-14T01:12:33.118Z,-1.50
2018-02-14T01:13:38.639Z,-1.60
2018-02-14T01:14:43.664Z,-1.60
2018-02-14T01:15:47.908Z,-1.60
2018-02-14T01:16:52.105Z,-1.60
2018-02-14T01:17:56.307Z,-1.60
2018-02-14T01:19:07.091Z,-1.60
2018-02-14T01:20:11.860Z,-1.60
2018-02-14T01:21:16.861Z,-1.60
2018-02-14T01:22:21.066Z,-1.60
2018-02-14T01:23:25.280Z,-1.60
2018-02-14T01:24:29.883Z,-1.60
2018-02-14T01:25:34.613Z,-1.70
2018-02-14T01:26:39.179Z,-1.60
2018-02-14T01:27:44.282Z,-1.60
2018-02-14T01:28:48.508Z,-1.70
2018-02-14T01:29:52.775Z,-1.60
2018-02-14T01:30:56.953Z,-1.70
2018-02-14T01:32:02.264Z,-1.70
2018-02-14T01:33:06.663Z,-1.70
2018-02-14T01:34:11.431Z,-1.70
2018-02-14T01:35:16.090Z,-1.70
2018-02-14T01:36:20.299Z,-1.70
2018-02-14T01:37:24.512Z,-1.70
2018-02-14T01:38:28.731Z,-1.70
2018-02-14T01:39:33.771Z,-1.70
2018-02-14T01:40:38.127Z,-1.60
2018-02-14T01:41:43.203Z,-1.70
2018-02-14T01:42:47.407Z,-1.70
2018-02-14T01:43:51.596Z,-1.70
2018-02-14T01:44:56.562Z,-1.70
2018-02-14T01:46:00.823Z,-1.80
2018-02-14T01:47:05.158Z,-1.70
2018-02-14T01:48:09.503Z,-1.70
2018-02-14T01:49:13.770Z,-1.70
2018-02-14T01:50:17.983Z,-1.70
2018-02-14T01:51:23.016Z,-1.70
2018-02-14T01:52:27.991Z,-1.70
2018-02-14T01:53:32.430Z,-1.70
2018-02-14T01:54:37.217Z,-1.70
2018-02-14T01:55:41.819Z,-1.80
2018-02-14T01:56:46.021Z,-1.80
2018-02-14T01:57:50.247Z,-1.80
2018-02-14T01:58:54.436Z,-1.70
2018-02-14T01:59:59.412Z,-1.70
2018-02-14T02:01:03.966Z,-1.80
2018-02-14T02:02:09.067Z,-1.70
2018-02-14T02:03:13.347Z,-1.80
2018-02-14T02:04:17.615Z,-1.70
2018-02-14T02:05:21.827Z,-1.70
2018-02-14T02:06:26.120Z,-1.70
2018-02-14T02:07:30.340Z,-1.70
2018-02-14T02:08:35.902Z,-1.70
2018-02-14T02:09:40.228Z,-1.80
2018-02-14T02:10:44.472Z,-1.70
2018-02-14T02:11:48.703Z,-1.70
2018-02-14T02:12:52.915Z,-1.70
2018-02-14T02:13:57.189Z,-1.80
2018-02-14T02:15:01.463Z,-1.80
2018-02-14T02:16:06.908Z,-1.80
2018-02-14T02:17:11.979Z,-1.80
2018-02-14T02:18:16.211Z,-1.80
2018-02-14T02:19:20.400Z,-1.80
2018-02-14T02:20:24.628Z,-1.80
2018-02-14T02:21:28.843Z,-1.90
2018-02-14T02:22:34.305Z,-1.80
2018-02-14T02:23:39.476Z,-1.90
2018-02-14T02:24:44.183Z,-1.90
2018-02-14T02:25:49.137Z,-1.80
2018-02-14T02:26:53.352Z,-1.90
2018-02-14T02:27:57.602Z,-1.80
2018-02-14T02:29:02.021Z,-1.80
2018-02-14T02:30:07.118Z,-1.80
2018-02-14T02:31:11.540Z,-1.80
2018-02-14T02:32:16.001Z,-1.80
2018-02-14T02:33:20.263Z,-1.90
2018-02-14T02:34:24.476Z,-1.90
2018-02-14T02:35:28.777Z,-1.90
2018-02-14T02:36:34.011Z,-1.90
2018-02-14T02:37:39.532Z,-1.80
2018-02-14T02:38:44.480Z,-1.90
2018-02-14T02:40:07.177Z,-1.90
2018-02-14T02:41:12.237Z,-1.90
2018-02-14T02:42:16.461Z,-1.90
2018-02-14T02:43:20.679Z,-1.90
2018-02-14T02:44:24.921Z,-1.90
2018-02-14T02:45:29.134Z,-1.90
2018-02-14T02:46:35.043Z,-1.90
2018-02-14T02:47:40.686Z,-1.90
2018-02-14T02:48:44.979Z,-1.90
2018-02-14T02:49:49.980Z,-2.00
2018-02-14T02:50:54.206Z,-2.00
2018-02-14T02:51:58.395Z,-2.00
2018-02-14T02:53:02.855Z,-2.00
2018-02-14T02:54:08.067Z,-2.00
2018-02-14T02:55:12.514Z,-2.00
2018-02-14T02:56:16.753Z,-2.00
2018-02-14T02:57:20.936Z,-2.00
2018-02-14T02:58:25.170Z,-2.00
2018-02-14T02:59:29.355Z,-2.00
2018-02-14T03:00:35.239Z,-2.00
2018-02-14T03:01:41.273Z,-2.00
2018-02-14T03:02:46.144Z,-2.00
2018-02-14T03:03:50.340Z,-2.00
2018-02-14T03:04:54.529Z,-2.00
2018-02-14T03:05:58.766Z,-2.00
2018-02-14T03:07:04.862Z,-2.00
2018-02-14T03:08:09.528Z,-2.00
2018-02-14T03:09:15.311Z,-1.90
2018-02-14T03:10:20.288Z,-1.90
2018-02-14T03:11:24.504Z,-1.90
2018-02-14T03:12:28.706Z,-2.00
2018-02-14T03:13:34.579Z,-2.00
2018-02-14T03:14:39.518Z,-2.00
2018-02-14T03:15:44.022Z,-2.00
2018-02-14T03:16:48.271Z,-2.00
2018-02-14T03:17:52.479Z,-2.10
2018-02-14T03:18:56.668Z,-2.10
2018-02-14T03:20:00.852Z,-2.10
2018-02-14T03:21:05.519Z,-2.10
2018-02-14T03:22:10.068Z,-2.10
2018-02-14T03:23:15.155Z,-2.10
2018-02-14T03:24:19.360Z,-2.10
2018-02-14T03:25:23.552Z,-2.20
2018-02-14T03:26:27.759Z,-2.20
2018-02-14T03:27:33.047Z,-2.20
2018-02-14T03:28:38.481Z,-2.20
2018-02-14T03:29:43.511Z,-2.20
2018-02-14T03:30:47.792Z,-2.20
2018-02-14T03:31:52.016Z,-2.20
2018-02-14T03:32:56.220Z,-2.20
2018-02-14T03:34:00.411Z,-2.30
2018-02-14T03:35:05.253Z,-2.30
2018-02-14T03:36:10.224Z,-2.20
2018-02-14T03:37:14.679Z,-2.30
2018-02-14T03:38:18.882Z,-2.30
2018-02-14T03:39:23.072Z,-2.30
2018-02-14T03:40:27.298Z,-2.30
2018-02-14T03:41:31.593Z,-2.30
2018-02-14T03:42:36.967Z,-2.40
2018-02-14T03:43:41.283Z,-2.40
2018-02-14T03:44:45.980Z,-2.40
2018-02-14T03:45:50.184Z,-2.40
2018-02-14T03:46:54.396Z,-2.40
2018-02-14T03:47:58.575Z,-2.40
2018-02-14T03:49:03.431Z,-2.40
2018-02-14T03:50:09.728Z,-2.40
2018-02-14T03:51:14.996Z,-2.40
2018-02-14T03:52:19.975Z,-2.40
2018-02-14T03:53:24.187Z,-2.50
2018-02-14T03:54:28.375Z,-2.40
2018-02-14T03:55:32.879Z,-2.40
2018-02-14T03:56:37.580Z,-2.40
2018-02-14T03:57:43.199Z,-2.40
2018-02-14T03:58:47.452Z,-2.40
2018-02-14T03:59:52.456Z,-2.40
2018-02-14T04:00:56.689Z,-2.40
2018-02-14T04:02:02.158Z,-2.40
2018-02-14T04:03:07.455Z,-2.40
2018-02-14T04:04:12.733Z,-2.40
2018-02-14T04:05:17.408Z,-2.40
2018-02-14T04:06:21.597Z,-2.40
2018-02-14T04:07:26.195Z,-2.40
2018-02-14T04:08:30.407Z,-2.50
2018-02-14T04:09:35.297Z,-2.50
2018-02-14T04:10:39.756Z,-2.60
2018-02-14T04:11:44.402Z,-2.50
2018-02-14T04:12:48.659Z,-2.50
2018-02-14T04:13:52.836Z,-2.50
2018-02-14T04:14:57.812Z,-2.50
2018-02-14T04:16:02.137Z,-2.50
2018-02-14T04:17:07.601Z,-2.50
2018-02-14T04:18:12.172Z,-2.50
2018-02-14T04:19:16.473Z,-2.50
2018-02-14T04:20:20.687Z,-2.50
2018-02-14T04:21:24.880Z,-2.50
2018-02-14T04:22:29.874Z,-2.50
2018-02-14T04:23:36.119Z,-2.50
2018-02-14T04:24:41.417Z,-2.50
2018-02-14T04:25:45.670Z,-2.50
2018-02-14T04:26:49.867Z,-2.50
2018-02-14T04:27:54.097Z,-2.50
2018-02-14T04:28:58.342Z,-2.50
2018-02-14T04:30:03.775Z,-2.50
2018-02-14T04:31:08.208Z,-2.60
2018-02-14T04:32:12.542Z,-2.60
2018-02-14T04:33:16.915Z,-2.60
2018-02-14T04:34:21.145Z,-2.60
2018-02-14T04:35:26.118Z,-2.60
2018-02-14T04:36:30.408Z,-2.60
2018-02-14T04:37:35.728Z,-2.60
2018-02-14T04:38:40.090Z,-2.60
2018-02-14T04:39:44.680Z,-2.60
2018-02-14T04:40:48.905Z,-2.70
2018-02-14T04:41:53.096Z,-2.60
2018-02-14T04:42:57.293Z,-2.70
2018-02-14T04:44:02.590Z,-2.70
2018-02-14T04:45:07.188Z,-2.70
2018-02-14T04:46:12.518Z,-2.70
2018-02-14T04:47:16.776Z,-2.70
2018-02-14T04:48:22.490Z,-2.70
2018-02-14T04:49:27.094Z,-2.70
2018-02-14T04:50:31.864Z,-2.70
2018-02-14T04:51:37.580Z,-2.70
2018-02-14T04:52:43.078Z,-2.70
2018-02-14T04:53:47.380Z,-2.80
2018-02-14T04:54:52.780Z,-2.80
2018-02-14T04:55:56.975Z,-2.80
2018-02-14T04:57:01.226Z,-2.80
2018-02-14T04:58:06.827Z,-2.80
2018-02-14T04:59:12.461Z,-2.80
2018-02-14T05:00:16.730Z,-2.80
2018-02-14T05:01:20.915Z,-2.80
2018-02-14T05:02:25.119Z,-2.80
2018-02-14T05:03:29.350Z,-2.70
2018-02-14T05:04:35.180Z,-2.70
2018-02-14T05:05:39.941Z,-2.80
2018-02-14T05:06:44.626Z,-2.70
2018-02-14T05:07:48.836Z,-2.70
2018-02-14T05:08:53.446Z,-2.70
2018-02-14T05:09:57.730Z,-2.60
2018-02-14T05:11:02.194Z,-2.60
2018-02-14T05:12:07.722Z,-2.60
2018-02-14T05:13:12.177Z,-2.60
2018-02-14T05:14:16.490Z,-2.70
2018-02-14T05:15:20.694Z,-2.60
2018-02-14T05:16:24.874Z,-2.60
2018-02-14T05:17:29.055Z,-2.60
2018-02-14T05:18:34.727Z,-2.60
2018-02-14T05:19:39.415Z,-2.60
2018-02-14T05:20:44.246Z,-2.70
2018-02-14T05:21:48.451Z,-2.70
2018-02-14T05:22:52.653Z,-2.70
2018-02-14T05:23:57.812Z,-2.70
2018-02-14T05:25:02.686Z,-2.70
2018-02-14T05:26:07.244Z,-2.70
2018-02-14T05:27:11.559Z,-2.70
2018-02-14T05:28:15.796Z,-2.70
2018-02-14T05:29:20.009Z,-2.70
2018-02-14T05:30:24.230Z,-2.70
2018-02-14T05:31:28.438Z,-2.60
2018-02-14T05:32:32.851Z,-2.60
2018-02-14T05:33:37.330Z,-2.60
2018-02-14T05:34:41.848Z,-2.60
2018-02-14T05:35:46.975Z,-2.60
2018-02-14T05:36:51.201Z,-2.60
2018-02-14T05:37:55.420Z,-2.60
2018-02-14T05:38:59.627Z,-2.60
2018-02-14T05:40:04.830Z,-2.60
2018-02-14T05:41:09.577Z,-2.50
2018-02-14T05:42:13.873Z,-2.50
2018-02-14T05:43:18.163Z,-2.50
2018-02-14T05:44:22.371Z,-2.50
2018-02-14T05:45:26.555Z,-2.60
2018-02-14T05:46:30.763Z,-2.60
2018-02-14T05:47:35.454Z,-2.60
2018-02-14T05:48:39.754Z,-2.60
2018-02-14T05:49:44.656Z,-2.60
2018-02-14T05:50:48.876Z,-2.60
2018-02-14T05:51:54.245Z,-2.60
2018-02-14T05:52:58.460Z,-2.60
2018-02-14T05:54:03.038Z,-2.60
2018-02-14T05:55:07.775Z,-2.60
2018-02-14T05:56:12.163Z,-2.60
2018-02-14T05:57:17.175Z,-2.60
2018-02-14T05:58:21.359Z,-2.60
2018-02-14T05:59:25.548Z,-2.60
2018-02-14T06:00:29.783Z,-2.60
2018-02-14T06:01:34.662Z,-2.50
2018-02-14T06:02:40.028Z,-2.60
2018-02-14T06:03:44.323Z,-2.60
2018-02-14T06:04:50.214Z,-2.60
2018-02-14T06:05:54.453Z,-2.60
2018-02-14T06:06:59.441Z,-2.60
2018-02-14T06:08:04.984Z,-2.60
2018-02-14T06:09:09.446Z,-2.60
2018-02-14T06:10:14.624Z,-2.60
2018-02-14T06:11:18.830Z,-2.60
2018-02-14T06:12:23.803Z,-2.60
2018-02-14T06:13:28.064Z,-2.60
2018-02-14T06:14:33.932Z,-2.60
2018-02-14T06:15:39.044Z,-2.70
2018-02-14T06:16:43.667Z,-2.70
2018-02-14T06:17:48.049Z,-2.60
2018-02-14T06:18:52.631Z,-2.60
2018-02-14T06:19:56.883Z,-2.60
2018-02-14T06:21:01.091Z,-2.60
2018-02-14T06:22:06.567Z,-2.60
2018-02-14T06:23:11.401Z,-2.60
2018-02-14T06:24:15.981Z,-2.50
2018-02-14T06:25:20.181Z,-2.60
2018-02-14T06:26:24.396Z,-2.60
2018-02-14T06:27:28.598Z,-2.60
2018-02-14T06:28:33.482Z,-2.60
2018-02-14T06:29:39.059Z,-2.50
2018-02-14T06:30:43.663Z,-2.50
2018-02-14T06:31:47.870Z,-2.50
2018-02-14T06:32:52.080Z,-2.60
2018-02-14T06:33:56.283Z,-2.50
2018-02-14T06:35:00.515Z,-2.50
2018-02-14T06:36:06.531Z,-2.50
2018-02-14T06:37:10.934Z,-2.50
2018-02-14T06:38:15.936Z,-2.50
2018-02-14T06:39:20.119Z,-2.50
2018-02-14T06:40:24.313Z,-2.50
2018-02-14T06:41:28.547Z,-2.50
2018-02-14T06:42:33.506Z,-2.50
2018-02-14T06:43:38.064Z,-2.50
2018-02-14T06:44:42.371Z,-2.50
2018-02-14T06:45:47.127Z,-2.50
2018-02-14T06:46:51.332Z,-2.50
2018-02-14T06:47:55.552Z,-2.50
2018-02-14T06:48:59.744Z,-2.50
2018-02-14T06:50:04.533Z,-2.60
2018-02-14T06:51:08.946Z,-2.60
2018-02-14T06:52:13.580Z,-2.60
2018-02-14T06:53:17.808Z,-2.60
2018-02-14T06:54:22.026Z,-2.60
2018-02-14T06:55:26.258Z,-2.60
2018-02-14T06:56:30.495Z,-2.50
2018-02-14T06:57:35.389Z,-2.50
2018-02-14T06:58:39.952Z,-2.50
2018-02-14T06:59:44.489Z,-2.50
2018-02-14T07:00:48.696Z,-2.50
2018-02-14T07:01:52.922Z,-2.50
2018-02-14T07:02:57.151Z,-2.60
2018-02-14T07:04:01.445Z,-2.50
2018-02-14T07:05:06.776Z,-2.60
2018-02-14T07:06:11.150Z,-2.60
2018-02-14T07:07:15.687Z,-2.60
2018-02-14T07:08:20.647Z,-2.60
2018-02-14T07:09:25.072Z,-2.60
2018-02-14T07:10:29.334Z,-2.60
2018-02-14T07:11:34.353Z,-2.50
2018-02-14T07:12:39.375Z,-2.50
2018-02-14T07:13:43.568Z,-2.50
2018-02-14T07:14:47.835Z,-2.50
2018-02-14T07:15:52.809Z,-2.50
2018-02-14T07:16:57.015Z,-2.60
2018-02-14T07:18:01.238Z,-2.50
2018-02-14T07:19:05.507Z,-2.40
2018-02-14T07:20:09.695Z,-2.40
2018-02-14T07:21:13.903Z,-2.40
2018-02-14T07:22:18.111Z,-2.40
2018-02-14T07:23:30.824Z,-2.40
2018-02-14T07:24:36.540Z,-2.30
2018-02-14T07:25:40.821Z,-2.30
2018-02-14T07:26:45.032Z,-2.30
2018-02-14T07:27:49.270Z,-2.30
2018-02-14T07:28:53.498Z,-2.20
2018-02-14T07:29:57.686Z,-2.20
2018-02-14T07:31:01.916Z,-2.20
2018-02-14T07:32:06.242Z,-2.20
2018-02-14T07:33:10.466Z,-2.20
2018-02-14T07:34:15.467Z,-2.10
2018-02-14T07:35:19.696Z,-2.10
2018-02-14T07:36:23.936Z,-2.10
2018-02-14T07:37:28.129Z,-2.10
2018-02-14T07:38:33.346Z,-2.10
2018-02-14T07:39:37.566Z,-2.10
2018-02-14T07:40:41.807Z,-2.00
2018-02-14T07:41:46.056Z,-2.00
2018-02-14T07:42:50.289Z,-1.90
2018-02-14T07:43:56.010Z,-1.90
2018-02-14T07:45:00.219Z,-1.90
2018-02-14T07:46:04.889Z,-1.90
2018-02-14T07:47:09.198Z,-1.90
2018-02-14T07:48:14.209Z,-1.80
2018-02-14T07:49:18.442Z,-1.80
2018-02-14T07:50:23.420Z,-1.80
2018-02-14T07:51:27.633Z,-1.80
2018-02-14T07:52:32.433Z,-1.80
2018-02-14T07:53:37.635Z,-1.80
2018-02-14T07:54:42.961Z,-1.80
2018-02-14T07:55:47.196Z,-1.80
2018-02-14T07:56:52.194Z,-1.80
2018-02-14T07:57:56.430Z,-1.70
2018-02-14T07:59:01.471Z,-1.60
2018-02-14T08:00:06.324Z,-1.70
2018-02-14T08:01:11.294Z,-1.60
2018-02-14T08:02:15.505Z,-1.50
2018-02-14T08:03:20.871Z,-1.50
2018-02-14T08:04:25.832Z,-1.40
2018-02-14T08:05:30.034Z,-1.40
2018-02-14T08:06:34.494Z,-1.40
2018-02-14T08:07:38.988Z,-1.40
2018-02-14T08:08:43.891Z,-1.30
2018-02-14T08:09:48.087Z,-1.30
2018-02-14T08:10:52.293Z,-1.20
2018-02-14T08:11:57.271Z,-1.10
2018-02-14T08:13:01.577Z,-1.10
2018-02-14T08:14:06.715Z,-1.10
2018-02-14T08:15:11.441Z,-1.00
2018-02-14T08:16:16.456Z,-0.80
2018-02-14T08:17:20.644Z,-0.90
2018-02-14T08:18:25.186Z,-0.80
2018-02-14T08:19:29.444Z,-0.70
2018-02-14T08:20:33.967Z,-0.60
2018-02-14T08:21:38.327Z,-0.60
2018-02-14T08:22:42.582Z,-0.50
2018-02-14T08:23:47.579Z,-0.30
2018-02-14T08:24:51.802Z,-0.30
2018-02-14T08:25:56.022Z,-0.30
2018-02-14T08:27:00.223Z,-0.20
2018-02-14T08:28:05.263Z,-0.10
2018-02-14T08:29:09.511Z,0.10
2018-02-14T08:30:13.772Z,0.20
2018-02-14T08:31:18.024Z,0.20
2018-02-14T08:32:22.972Z,0.20
2018-02-14T08:33:27.179Z,0.20
2018-02-14T08:34:31.424Z,0.10
2018-02-14T08:35:36.857Z,0.10
2018-02-14T08:36:41.120Z,0.10
2018-02-14T08:37:45.315Z,0.10
2018-02-14T08:38:49.506Z,0.10
2018-02-14T08:39:53.711Z,0.10
2018-02-14T08:40:57.933Z,0.10
2018-02-14T08:42:02.402Z,0.00
2018-02-14T08:43:07.841Z,0.00
2018-02-14T08:44:12.519Z,0.00
2018-02-14T08:45:16.738Z,0.00
2018-02-14T08:46:21.735Z,0.10
2018-02-14T08:47:25.936Z,0.10
2018-02-14T08:48:30.154Z,0.10
2018-02-14T08:49:34.665Z,0.20
2018-02-14T08:50:39.880Z,0.10
2018-02-14T08:51:45.015Z,0.20
2018-02-14T08:52:49.191Z,0.10
2018-02-14T08:53:54.204Z,0.30
2018-02-14T08:54:58.393Z,0.20
2018-02-14T08:56:03.207Z,0.20
2018-02-14T08:57:07.818Z,0.20
2018-02-14T08:58:12.051Z,0.30
2018-02-14T08:59:16.604Z,0.30
2018-02-14T09:00:21.575Z,0.60
2018-02-14T09:01:25.805Z,0.50
2018-02-14T09:02:30.157Z,0.70
2018-02-14T09:03:35.809Z,0.80
2018-02-14T09:04:40.371Z,1.00
2018-02-14T09:05:44.898Z,1.10
2018-02-14T09:06:49.113Z,1.30
2018-02-14T09:07:53.281Z,1.40
2018-02-14T09:08:57.552Z,1.60
2018-02-14T09:10:03.147Z,1.60
2018-02-14T09:11:07.497Z,1.60
2018-02-14T09:12:11.834Z,1.50
2018-02-14T09:13:16.815Z,1.70
2018-02-14T09:14:21.024Z,1.60
2018-02-14T09:15:25.252Z,1.70
2018-02-14T09:16:29.495Z,1.60
2018-02-14T09:17:34.414Z,1.80
2018-02-14T09:18:39.786Z,1.80
2018-02-14T09:19:44.043Z,1.80
2018-02-14T09:20:48.276Z,1.70
2018-02-14T09:21:52.469Z,1.80
2018-02-14T09:22:56.660Z,1.70
2018-02-14T09:24:00.988Z,1.70
2018-02-14T09:25:06.824Z,1.80
2018-02-14T09:26:11.483Z,1.70
2018-02-14T09:27:16.788Z,1.60
2018-02-14T09:28:20.991Z,1.60
2018-02-14T09:29:25.179Z,1.50
2018-02-14T09:30:29.356Z,1.50
2018-02-14T09:31:34.212Z,1.40
2018-02-14T09:32:39.437Z,1.40
2018-02-14T09:33:43.747Z,1.40
2018-02-14T09:34:47.958Z,1.30
2018-02-14T09:35:52.899Z,1.40
2018-02-14T09:36:57.098Z,1.40
2018-02-14T09:38:01.424Z,1.50
2018-02-14T09:39:06.305Z,1.50
2018-02-14T09:40:11.388Z,1.60
2018-02-14T09:41:15.953Z,1.50
2018-02-14T09:42:20.511Z,1.60
2018-02-14T09:43:24.688Z,1.60
2018-02-14T09:44:28.860Z,1.60
2018-02-14T09:45:33.962Z,1.60
2018-02-14T09:46:38.804Z,1.70
2018-02-14T09:47:43.303Z,1.70
2018-02-14T09:48:47.504Z,1.70
2018-02-14T09:49:52.479Z,1.80
2018-02-14T09:50:56.696Z,1.80
2018-02-14T09:52:01.091Z,1.90
2018-02-14T09:53:05.733Z,1.90
2018-02-14T09:54:10.026Z,2.00
2018-02-14T09:55:14.452Z,1.90
2018-02-14T09:56:18.657Z,2.00
2018-02-14T09:57:22.822Z,2.00
2018-02-14T09:58:27.862Z,2.10
2018-02-14T09:59:33.034Z,2.10
2018-02-14T10:00:37.341Z,2.10
2018-02-14T10:01:41.979Z,2.10
2018-02-14T10:02:46.190Z,2.10
2018-02-14T10:03:50.393Z,2.10
2018-02-14T10:04:54.575Z,2.10
2018-02-14T10:05:58.767Z,2.20
2018-02-14T10:07:03.956Z,2.30
2018-02-14T10:08:09.393Z,2.30
2018-02-14T10:09:13.652Z,2.30
2018-02-14T10:10:18.596Z,2.30
2018-02-14T10:11:23.535Z,2.40
2018-02-14T10:12:27.713Z,2.30
2018-02-14T10:13:32.157Z,2.40
2018-02-14T10:14:36.978Z,2.40
2018-02-14T10:15:41.663Z,2.40
2018-02-14T10:16:46.039Z,2.50
2018-02-14T10:17:50.263Z,2.50
2018-02-14T10:18:54.465Z,2.50
2018-02-14T10:19:58.666Z,2.50
2018-02-14T10:21:03.576Z,2.60
2018-02-14T10:22:08.876Z,2.60
2018-02-14T10:23:13.995Z,2.60
2018-02-14T10:24:18.230Z,2.60
2018-02-14T10:25:23.227Z,2.70
2018-02-14T10:26:27.415Z,2.60
2018-02-14T10:27:31.785Z,2.70
2018-02-14T10:28:36.537Z,2.70
2018-02-14T10:29:40.778Z,2.80
2018-02-14T10:30:45.038Z,2.80
2018-02-14T10:31:49.998Z,2.90
2018-02-14T10:32:54.207Z,2.90
2018-02-14T10:33:58.427Z,2.90
2018-02-14T10:35:02.919Z,2.90
2018-02-14T10:36:08.378Z,3.10
2018-02-14T10:37:12.989Z,3.10
2018-02-14T10:38:17.656Z,3.10
2018-02-14T10:39:21.899Z,3.10
2018-02-14T10:40:26.175Z,3.20
2018-02-14T10:41:30.359Z,3.30
2018-02-14T10:42:34.863Z,3.30
2018-02-14T10:43:39.401Z,3.30
2018-02-14T10:44:43.666Z,3.40
2018-02-14T10:45:47.870Z,3.40
2018-02-14T10:46:52.842Z,3.50
2018-02-14T10:47:57.015Z,3.50
2018-02-14T10:49:03.014Z,3.60
2018-02-14T10:50:09.016Z,3.60
2018-02-14T10:51:14.022Z,3.80
2018-02-14T10:52:18.228Z,3.70
2018-02-14T10:53:22.426Z,3.80
2018-02-14T10:54:26.614Z,3.80
2018-02-14T10:55:30.868Z,3.70
2018-02-14T10:56:36.672Z,3.70
2018-02-14T10:57:40.932Z,3.70
2018-02-14T10:58:45.208Z,3.80
2018-02-14T10:59:49.404Z,3.80
2018-02-14T11:00:59.029Z,3.90
2018-02-14T11:02:09.027Z,3.90
2018-02-14T11:03:18.858Z,3.90
2018-02-14T11:04:30.344Z,3.90
2018-02-14T11:05:34.695Z,3.90
2018-02-14T11:06:39.786Z,3.90
2018-02-14T11:07:44.548Z,3.90
2018-02-14T11:08:49.569Z,4.00
2018-02-14T11:09:53.743Z,4.00
2018-02-14T11:10:57.955Z,4.00
2018-02-14T11:12:02.845Z,4.00
2018-02-14T11:13:08.888Z,4.10
2018-02-14T11:14:13.227Z,4.00
2018-02-14T11:15:17.427Z,4.00
2018-02-14T11:16:21.635Z,4.00
2018-02-14T11:17:25.867Z,4.00
2018-02-14T11:18:30.068Z,4.00
2018-02-14T11:19:35.428Z,4.00
2018-02-14T11:20:40.275Z,4.00
2018-02-14T11:21:45.259Z,4.10
2018-02-14T11:22:49.459Z,4.10
2018-02-14T11:23:53.631Z,4.20
2018-02-14T11:24:57.834Z,4.30
2018-02-14T11:26:02.223Z,4.30
2018-02-14T11:27:07.965Z,4.30
2018-02-14T11:28:12.988Z,4.30
2018-02-14T11:29:17.213Z,4.20
2018-02-14T11:30:21.407Z,4.30
2018-02-14T11:31:25.621Z,4.30
2018-02-14T11:32:29.794Z,4.30
2018-02-14T11:33:35.989Z,4.20
2018-02-14T11:34:40.845Z,4.20
2018-02-14T11:35:45.065Z,4.20
2018-02-14T11:36:49.327Z,4.30
2018-02-14T11:37:53.519Z,4.30
2018-02-14T11:38:58.472Z,4.30
2018-02-14T11:40:03.497Z,4.30
2018-02-14T11:41:08.341Z,4.40
2018-02-14T11:42:12.550Z,4.50
2018-02-14T11:43:16.800Z,4.50
2018-02-14T11:44:20.999Z,4.60
2018-02-14T11:45:25.189Z,4.60
2018-02-14T11:46:29.375Z,4.60
2018-02-14T11:47:35.034Z,4.60
2018-02-14T11:48:39.488Z,4.50
2018-02-14T11:49:44.211Z,4.60
2018-02-14T11:50:48.413Z,4.60
2018-02-14T11:51:52.603Z,4.60
2018-02-14T11:52:56.790Z,4.70
2018-02-14T11:54:01.004Z,4.70
2018-02-14T11:55:06.450Z,4.60
2018-02-14T11:56:10.667Z,4.60
2018-02-14T11:57:14.972Z,4.70
2018-02-14T11:58:19.177Z,4.70
2018-02-14T11:59:23.361Z,4.60
2018-02-14T12:00:28.350Z,4.60
2018-02-14T12:01:32.929Z,4.60
2018-02-14T12:02:38.490Z,4.70
2018-02-14T12:03:42.846Z,4.70
2018-02-14T12:04:47.078Z,4.70
2018-02-14T12:05:52.003Z,4.60
2018-02-14T12:06:58.127Z,4.60
2018-02-14T12:08:03.118Z,4.60
2018-02-14T12:09:08.403Z,4.70
2018-02-14T12:10:13.544Z,4.90
2018-02-14T12:11:17.827Z,4.80
2018-02-14T12:12:22.028Z,4.90
2018-02-14T12:13:26.224Z,4.90
2018-02-14T12:14:30.425Z,4.90
2018-02-14T12:15:34.979Z,4.80
2018-02-14T12:16:39.414Z,4.90
2018-02-14T12:17:44.596Z,4.80
2018-02-14T12:18:48.759Z,4.80
2018-02-14T12:19:52.951Z,4.80
2018-02-14T12:20:57.962Z,4.80
2018-02-14T12:22:02.494Z,4.80
2018-02-14T12:23:07.167Z,4.80
2018-02-14T12:24:12.204Z,4.80
2018-02-14T12:25:16.911Z,4.70
2018-02-14T12:26:21.875Z,4.80
2018-02-14T12:27:26.072Z,4.80
2018-02-14T12:28:30.239Z,4.90
2018-02-14T12:29:34.496Z,4.90
2018-02-14T12:30:38.970Z,4.90
2018-02-14T12:31:44.024Z,5.00
2018-02-14T12:32:48.255Z,5.10
2018-02-14T12:33:52.446Z,5.20
2018-02-14T12:34:57.383Z,5.30
2018-02-14T12:36:01.662Z,5.30
2018-02-14T12:37:07.895Z,5.30
2018-02-14T12:38:12.245Z,5.30
2018-02-14T12:39:16.550Z,5.40
2018-02-14T12:40:20.756Z,5.50
2018-02-14T12:41:25.315Z,5.40
2018-02-14T12:42:29.508Z,5.40
2018-02-14T12:43:35.374Z,5.30
2018-02-14T12:44:39.796Z,5.30
2018-02-14T12:45:44.713Z,5.30
2018-02-14T12:46:48.902Z,5.30
2018-02-14T12:47:53.858Z,5.40
2018-02-14T12:48:58.834Z,5.40
2018-02-14T12:50:04.905Z,5.40
2018-02-14T12:51:09.227Z,5.50
2018-02-14T12:52:13.540Z,5.60
2018-02-14T12:53:18.906Z,5.50
2018-02-14T12:54:23.100Z,5.50
2018-02-14T12:55:27.294Z,5.50
2018-02-14T12:56:33.350Z,5.60
2018-02-14T12:57:38.848Z,5.40
2018-02-14T12:58:43.891Z,5.50
2018-02-14T12:59:48.127Z,5.40
2018-02-14T13:00:53.089Z,5.40
2018-02-14T13:01:57.247Z,5.40
2018-02-14T13:03:01.737Z,5.40
2018-02-14T13:04:07.550Z,5.50
2018-02-14T13:05:11.796Z,5.60
2018-02-14T13:06:16.003Z,5.60
2018-02-14T13:07:20.172Z,5.50
2018-02-14T13:08:24.557Z,5.50
2018-02-14T13:09:32.395Z,5.50
2018-02-14T13:10:44.247Z,5.50
2018-02-14T13:11:48.526Z,5.50
2018-02-14T13:12:52.718Z,5.50
2018-02-14T13:13:56.902Z,5.40
2018-02-14T13:15:01.563Z,5.30
2018-02-14T13:16:07.286Z,5.20
2018-02-14T13:17:13.111Z,5.20
2018-02-14T13:18:17.308Z,5.20
2018-02-14T13:19:21.508Z,5.30
2018-02-14T13:20:25.730Z,5.40
2018-02-14T13:21:29.930Z,5.40
2018-02-14T13:22:36.036Z,5.40
2018-02-14T13:23:40.723Z,5.40
2018-02-14T13:24:45.112Z,5.50
2018-02-14T13:25:49.683Z,5.50
2018-02-14T13:26:54.634Z,5.60
2018-02-14T13:27:58.832Z,5.60
2018-02-14T13:29:04.219Z,5.70
2018-02-14T13:30:10.182Z,5.70
2018-02-14T13:31:15.514Z,5.60
2018-02-14T13:32:19.711Z,5.60
2018-02-14T13:33:23.882Z,5.60
2018-02-14T13:34:28.055Z,5.50
2018-02-14T13:35:32.407Z,5.50
2018-02-14T13:36:37.240Z,5.50
2018-02-14T13:37:41.611Z,5.50
2018-02-14T13:38:46.606Z,5.60
2018-02-14T13:39:50.804Z,5.60
2018-02-14T13:40:54.992Z,5.60
2018-02-14T13:41:59.969Z,5.60
2018-02-14T13:43:04.750Z,5.60
2018-02-14T13:44:09.876Z,5.60
2018-02-14T13:45:14.171Z,5.60
2018-02-14T13:46:18.394Z,5.60
2018-02-14T13:47:23.356Z,5.60
2018-02-14T13:48:27.582Z,5.50
2018-02-14T13:49:33.082Z,5.60
2018-02-14T13:50:37.500Z,5.60
2018-02-14T13:51:41.851Z,5.60
2018-02-14T13:52:46.301Z,5.60
2018-02-14T13:53:50.468Z,5.60
2018-02-14T13:54:54.655Z,5.50
2018-02-14T13:55:58.855Z,5.50
2018-02-14T13:57:03.197Z,5.50
2018-02-14T13:58:07.748Z,5.50
2018-02-14T13:59:11.970Z,5.40
2018-02-14T14:00:16.162Z,5.40
2018-02-14T14:01:20.360Z,5.40
2018-02-14T14:02:24.569Z,5.40
2018-02-14T14:03:29.088Z,5.40